Terminal Aerodrome Forecast
Issued by NWS

Current Version | Previous Version | Text Only | Print | Product List | Glossary Off
Versions: 1 2 3 4 5 6 7 8 9 10 11 12 13 14 15 16 17 18 19 20 21 22 23 24 25

000
FTUS41 KILN 281731
TAFLUK
TAF
KLUK 281731Z 2818/2918 18007KT P6SM FEW025 BKN060
     FM282300 00000KT P6SM SCT060 BKN120
      TEMPO 2910/2913 4SM BR SCT150
     FM291500 21005KT P6SM FEW045 SCT200=

USA.gov is the U.S. government's official web portal to all federal, state and local government web resources and services.